Time;durP1;ratioP1;P1;durP2;ratioP2;P2;SDS_P1;SDS_P2;PMS_P1;PMS_P2;Temp;Humidity;BMP_temperature;BMP_pressure;BME280_temperature;BME280_humidity;BME280_pressure;Samples;Min_cycle;Max_cycle;Signal;HPM_P1;HPM_P2
2023/05/08 00:00:21;;;;;;;29.67;14.90;;;;;;;3.31;68.64;148147.09;5063611;28;20033;-65
2023/05/08 00:02:46;;;;;;;27.98;14.07;;;;;;;3.25;68.40;148133.06;5063935;28;20055;-65
2023/05/08 00:05:12;;;;;;;27.60;14.60;;;;;;;3.22;68.53;148124.13;5063758;28;20049;-66
2023/05/08 00:07:38;;;;;;;27.92;13.65;;;;;;;3.20;68.87;148119.03;5063788;28;20032;-64
2023/05/08 00:10:05;;;;;;;26.52;13.73;;;;;;;3.24;69.14;148130.50;5063837;28;20278;-64
2023/05/08 00:12:30;;;;;;;26.08;13.80;;;;;;;3.26;68.89;148135.63;5060820;28;20048;-65
2023/05/08 00:14:56;;;;;;;30.90;13.93;;;;;;;3.25;68.57;148131.75;5044057;28;20040;-64
2023/05/08 00:17:22;;;;;;;28.40;13.60;;;;;;;3.25;69.25;148133.06;5061676;28;20039;-64
2023/05/08 00:19:47;;;;;;;29.90;14.27;;;;;;;3.17;69.27;148111.41;5050013;28;20025;-65
2023/05/08 00:22:13;;;;;;;30.05;13.43;;;;;;;3.09;69.53;148092.25;5059254;28;20225;-65
2023/05/08 00:24:39;;;;;;;26.13;15.13;;;;;;;3.13;69.21;148102.47;5063376;28;20329;-64
2023/05/08 00:27:04;;;;;;;38.92;18.95;;;;;;;3.15;70.27;148107.59;5063213;28;20215;-65
2023/05/08 00:29:30;;;;;;;33.50;14.38;;;;;;;3.18;69.40;148115.22;5054043;28;20056;-65
2023/05/08 00:31:56;;;;;;;31.70;14.65;;;;;;;3.19;69.42;148117.78;5062968;28;20359;-65
2023/05/08 00:34:21;;;;;;;31.75;15.15;;;;;;;3.17;69.11;148112.66;5053484;28;20036;-66
2023/05/08 00:36:47;;;;;;;32.10;14.65;;;;;;;3.17;69.19;148112.66;5055437;28;20074;-66
2023/05/08 00:39:12;;;;;;;26.23;14.23;;;;;;;3.12;69.54;148099.91;5047427;28;20029;-65
2023/05/08 00:41:38;;;;;;;31.00;14.30;;;;;;;3.03;70.11;148076.97;5062871;28;20297;-64
2023/05/08 00:44:04;;;;;;;31.10;14.60;;;;;;;3.07;69.94;148087.19;5047396;28;20063;-65
2023/05/08 00:46:30;;;;;;;25.67;14.07;;;;;;;3.02;70.20;148074.41;5059000;28;20057;-65
2023/05/08 00:48:56;;;;;;;24.88;13.45;;;;;;;3.07;69.67;148087.19;5038967;28;20104;-65
2023/05/08 00:51:22;;;;;;;34.67;15.10;;;;;;;3.01;69.86;148073.16;5051143;28;20048;-65
2023/05/08 00:53:48;;;;;;;27.83;13.90;;;;;;;2.97;70.40;148061.69;5044970;28;20033;-64
2023/05/08 00:56:15;;;;;;;27.98;13.32;;;;;;;2.94;69.93;148055.31;5062405;28;20025;-64
2023/05/08 00:58:43;;;;;;;28.83;14.18;;;;;;;2.98;69.90;148065.50;5050634;28;20041;-65
2023/05/08 01:01:10;;;;;;;24.75;13.88;;;;;;;2.98;70.29;148064.22;5050107;28;20016;-66
2023/05/08 01:03:36;;;;;;;31.25;14.85;;;;;;;3.01;69.64;148071.91;5061721;28;20092;-65
2023/05/08 01:06:04;;;;;;;30.05;15.02;;;;;;;2.91;70.20;148048.94;5062475;28;20052;-65
2023/05/08 01:08:30;;;;;;;33.45;14.50;;;;;;;2.92;69.38;148051.50;5043872;28;20063;-65
2023/05/08 01:11:20;;;;;;;27.48;14.70;;;;;;;2.90;70.15;148045.09;5056505;28;20324;-65
2023/05/08 01:14:07;;;;;;;29.20;14.27;;;;;;;2.84;70.67;148029.84;5049756;28;20043;-65
2023/05/08 01:16:48;;;;;;;32.78;14.27;;;;;;;2.79;71.09;148017.06;5053236;28;20029;-65
2023/05/08 01:19:25;;;;;;;30.42;14.00;;;;;;;2.76;70.57;148010.69;5054164;28;20070;-65
2023/05/08 01:22:32;;;;;;;29.13;14.98;;;;;;;2.82;70.18;148026.00;5055175;28;20035;-65
2023/05/08 01:25:09;;;;;;;30.70;14.63;;;;;;;2.74;70.92;148006.88;5062456;28;20043;-65
2023/05/08 01:27:56;;;;;;;36.20;15.52;;;;;;;2.76;70.91;148010.69;5059328;28;20037;-65
2023/05/08 01:30:30;;;;;;;28.55;13.88;;;;;;;2.79;71.22;148018.31;5058833;28;20045;-66
2023/05/08 01:33:20;;;;;;;29.17;14.00;;;;;;;2.71;71.30;147999.22;5062577;28;20031;-64
2023/05/08 01:35:55;;;;;;;30.67;16.02;;;;;;;2.72;70.76;148001.78;5045886;28;20037;-65
2023/05/08 01:38:33;;;;;;;34.55;15.50;;;;;;;2.84;70.26;148029.84;5043661;28;20029;-64
2023/05/08 01:41:24;;;;;;;36.45;16.13;;;;;;;2.85;70.72;148032.34;5061130;28;20221;-66
2023/05/08 01:43:56;;;;;;;30.37;15.33;;;;;;;2.76;69.69;148010.69;5049243;28;20202;-64
2023/05/08 01:46:25;;;;;;;37.53;15.63;;;;;;;2.86;70.07;148036.16;5057476;28;20024;-65
2023/05/08 01:49:13;;;;;;;32.53;14.63;;;;;;;2.85;69.83;148033.66;5076150;28;20048;-65
2023/05/08 01:51:45;;;;;;;30.98;14.55;;;;;;;2.79;70.06;148018.31;5061723;28;20032;-65
2023/05/08 01:54:15;;;;;;;28.05;14.00;;;;;;;2.84;69.73;148029.84;5062265;28;20051;-66
2023/05/08 01:56:44;;;;;;;35.08;13.95;;;;;;;2.90;70.05;148045.09;5062085;28;20036;-65
2023/05/08 01:59:13;;;;;;;26.80;13.70;;;;;;;2.75;70.08;148008.13;5046643;28;20032;-65
2023/05/08 02:01:40;;;;;;;27.52;13.65;;;;;;;2.82;69.65;148026.00;5053248;28;20047;-65
2023/05/08 02:04:08;;;;;;;24.70;13.13;;;;;;;2.83;69.52;148028.53;5037237;28;20207;-65
2023/05/08 02:06:35;;;;;;;23.25;13.38;;;;;;;2.76;69.12;148010.69;5052412;28;20068;-65
2023/05/08 02:09:01;;;;;;;25.65;13.32;;;;;;;2.83;68.90;148028.53;5061627;28;20033;-65
2023/05/08 02:11:28;;;;;;;22.63;13.63;;;;;;;2.90;69.04;148045.09;5053468;28;20066;-65
2023/05/08 02:13:56;;;;;;;26.95;13.32;;;;;;;2.97;69.28;148062.94;5048236;28;20037;-65
2023/05/08 02:16:24;;;;;;;30.60;14.25;;;;;;;3.00;69.19;148070.59;5050192;28;20306;-65
2023/05/08 02:18:52;;;;;;;25.63;12.73;;;;;;;3.07;68.58;148087.19;5062251;28;20029;-65
2023/05/08 02:21:20;;;;;;;25.92;13.13;;;;;;;3.11;68.52;148097.38;5065095;28;20087;-65
2023/05/08 02:23:47;;;;;;;21.10;12.18;;;;;;;3.07;67.71;148087.19;5065528;28;20075;-65
2023/05/08 02:26:14;;;;;;;18.92;11.80;;;;;;;3.31;66.62;148147.09;5065209;28;20028;-65
2023/05/08 02:28:41;;;;;;;20.17;10.70;;;;;;;3.75;66.19;148256.75;5065012;28;20029;-65
2023/05/08 02:31:11;;;;;;;19.27;10.38;;;;;;;3.92;65.61;148297.53;5065048;28;20048;-65
2023/05/08 02:33:41;;;;;;;19.83;9.45;;;;;;;3.94;64.17;148303.94;5065556;28;20025;-66
2023/05/08 02:36:08;;;;;;;14.82;9.73;;;;;;;3.96;64.20;148309.06;5065097;28;20309;-64
2023/05/08 02:38:36;;;;;;;16.90;8.85;;;;;;;4.29;64.05;148389.41;5051378;28;20029;-65
2023/05/08 02:41:05;;;;;;;16.23;9.90;;;;;;;4.77;62.74;148509.38;5068170;28;20045;-65
2023/05/08 02:43:31;;;;;;;17.45;10.35;;;;;;;4.68;63.01;148486.41;5065372;28;20029;-64
2023/05/08 02:46:14;;;;;;;16.55;9.43;;;;;;;4.76;62.46;148506.84;5065187;28;20035;-65
2023/05/08 02:48:53;;;;;;;17.42;9.88;;;;;;;4.67;63.50;148483.84;5062508;28;20105;-65
2023/05/08 02:51:35;;;;;;;25.50;13.65;;;;;;;4.80;63.81;148517.06;5053413;28;20223;-64
2023/05/08 02:54:07;;;;;;;;;;;;;;;4.96;63.70;148555.34;5065535;28;20240;-64
2023/05/08 02:56:42;;;;;;;24.43;11.77;;;;;;;4.98;62.59;148560.47;5064727;28;19940;-65
2023/05/08 02:59:21;;;;;;;11.68;8.25;;;;;;;5.10;62.09;148591.13;5049489;28;20026;-65
2023/05/08 03:01:51;;;;;;;20.35;9.98;;;;;;;5.04;62.47;148575.78;5045127;28;20064;-65
2023/05/08 03:04:33;;;;;;;17.58;8.27;;;;;;;5.08;60.49;148584.72;5052541;28;20029;-65
2023/05/08 03:07:01;;;;;;;15.63;8.27;;;;;;;5.26;61.35;148630.69;5059431;28;20033;-65
2023/05/08 03:09:57;;;;;;;13.98;8.13;;;;;;;5.35;60.23;148653.66;5044550;28;20033;-65
2023/05/08 03:12:25;;;;;;;13.57;7.55;;;;;;;5.44;60.17;148675.38;5060827;28;20314;-66
2023/05/08 03:15:05;;;;;;;10.98;7.05;;;;;;;5.50;58.92;148690.72;5044904;28;20056;-65
2023/05/08 03:17:32;;;;;;;20.58;7.88;;;;;;;5.37;58.86;148657.50;5062676;28;20048;-65
2023/05/08 03:20:04;;;;;;;9.75;6.60;;;;;;;5.43;58.53;148672.84;5064499;28;20032;-65
2023/05/08 03:22:33;;;;;;;9.90;6.72;;;;;;;5.39;58.29;148661.31;5054944;28;20029;-65
2023/05/08 03:25:01;;;;;;;11.52;7.15;;;;;;;5.58;58.78;148709.88;5049580;28;20036;-66
2023/05/08 03:27:29;;;;;;;9.23;6.70;;;;;;;5.58;58.58;148708.59;5063194;28;20033;-65
2023/05/08 03:29:56;;;;;;;11.07;6.47;;;;;;;5.77;58.21;148755.84;5056815;28;20045;-65
2023/05/08 03:32:26;;;;;;;9.88;6.10;;;;;;;5.80;58.13;148763.50;5062486;28;20029;-65
2023/05/08 03:34:54;;;;;;;11.07;6.10;;;;;;;5.99;56.93;148810.88;5063697;28;20343;-64
2023/05/08 03:37:20;;;;;;;11.48;6.32;;;;;;;6.05;56.73;148827.44;5063720;28;20044;-64
2023/05/08 03:39:46;;;;;;;11.48;5.93;;;;;;;6.14;56.93;148849.22;5067646;28;20059;-65
2023/05/08 03:42:20;;;;;;;8.90;5.95;;;;;;;6.27;56.53;148879.84;5063858;28;20028;-66
2023/05/08 03:44:52;;;;;;;8.77;6.70;;;;;;;6.30;56.82;148888.81;5064287;28;20039;-65
2023/05/08 03:47:19;;;;;;;9.48;5.47;;;;;;;6.41;57.12;148914.38;5063890;28;20209;-65
2023/05/08 03:49:47;;;;;;;11.05;6.40;;;;;;;6.48;56.48;148932.25;5062860;28;20225;-65
2023/05/08 03:52:13;;;;;;;11.25;6.10;;;;;;;6.42;57.11;148918.19;5055981;28;20025;-65
2023/05/08 03:54:39;;;;;;;14.52;6.25;;;;;;;6.53;56.56;148946.31;5046153;28;20071;-65
2023/05/08 03:57:05;;;;;;;10.05;5.68;;;;;;;6.61;56.41;148965.47;5063657;28;20032;-65
2023/05/08 03:59:53;;;;;;;7.97;5.57;;;;;;;6.72;55.82;148993.63;5046688;28;20053;-66
2023/05/08 04:02:25;;;;;;;11.55;5.60;;;;;;;6.80;56.07;149012.81;5060448;28;20036;-65
2023/05/08 04:04:54;;;;;;;;;;;;;;;6.83;53.91;149019.22;5043138;28;20048;-65
2023/05/08 04:07:28;;;;;;;6.22;4.90;;;;;;;6.91;53.77;149039.66;5053024;28;19921;-65
2023/05/08 04:10:15;;;;;;;9.23;6.00;;;;;;;6.97;54.94;149053.72;5047337;28;20033;-66
2023/05/08 04:13:03;;;;;;;7.05;4.85;;;;;;;6.89;53.82;149035.81;5061028;28;20024;-66
2023/05/08 04:15:31;;;;;;;8.98;4.93;;;;;;;7.02;53.13;149067.78;5044263;28;20274;-66
2023/05/08 04:18:16;;;;;;;7.25;5.03;;;;;;;6.99;53.74;149058.84;5043530;28;20025;-65
2023/05/08 04:20:45;;;;;;;7.18;5.00;;;;;;;7.06;52.78;149076.75;5044061;28;20025;-65
2023/05/08 04:23:14;;;;;;;8.75;4.80;;;;;;;7.19;52.70;149108.72;5048764;28;20045;-65
2023/05/08 04:25:42;;;;;;;6.93;4.30;;;;;;;7.32;52.96;149141.97;5052996;28;20036;-66
2023/05/08 04:28:09;;;;;;;6.35;4.90;;;;;;;7.35;52.68;149149.63;5057391;28;20025;-65
2023/05/08 04:30:35;;;;;;;7.70;3.58;;;;;;;7.42;53.18;149167.59;5060397;28;20272;-65
2023/05/08 04:33:03;;;;;;;7.20;3.70;;;;;;;7.67;51.41;149228.97;5043240;28;20063;-65
2023/05/08 04:35:29;;;;;;;4.88;3.60;;;;;;;7.77;51.16;149254.56;5058495;28;20245;-65
2023/05/08 04:37:55;;;;;;;5.60;3.15;;;;;;;8.00;49.64;149310.88;5063069;28;20031;-65
2023/05/08 04:40:20;;;;;;;5.22;3.42;;;;;;;8.35;50.72;149397.94;5066660;28;20048;-65
2023/05/08 04:42:46;;;;;;;7.35;3.80;;;;;;;8.51;49.69;149436.34;5062554;28;20032;-66
2023/05/08 04:45:12;;;;;;;5.18;3.00;;;;;;;8.65;48.61;149472.25;5062829;28;20088;-66
2023/05/08 04:47:38;;;;;;;4.68;3.65;;;;;;;8.75;49.92;149497.84;5044738;28;20022;-66
2023/05/08 04:50:04;;;;;;;3.83;3.08;;;;;;;8.89;48.05;149532.44;5055875;28;20041;-67
2023/05/08 04:52:30;;;;;;;4.45;2.88;;;;;;;9.43;46.32;149666.91;5054075;28;20071;-66
2023/05/08 04:54:55;;;;;;;3.08;2.38;;;;;;;10.46;44.62;149923.34;5046509;28;20044;-66
2023/05/08 04:57:21;;;;;;;4.13;2.63;;;;;;;11.27;42.83;150124.69;5062481;28;20029;-67
2023/05/08 04:59:46;;;;;;;2.65;2.00;;;;;;;11.61;40.39;150208.16;5062551;28;20036;-66
2023/05/08 05:02:12;;;;;;;2.88;2.10;;;;;;;12.45;39.69;150418.72;5028172;28;20294;-68
2023/05/08 05:04:38;;;;;;;2.78;2.45;;;;;;;13.25;38.19;150619.19;5044836;28;20025;-67
2023/05/08 05:07:03;;;;;;;3.83;1.98;;;;;;;13.25;38.59;150619.19;5057518;28;20021;-67
2023/05/08 05:09:29;;;;;;;4.40;2.00;;;;;;;13.22;36.50;150611.41;5042649;28;20351;-67
2023/05/08 05:11:55;;;;;;;4.10;2.17;;;;;;;13.00;37.58;150556.19;5062043;28;20082;-66
2023/05/08 05:14:21;;;;;;;1.90;1.80;;;;;;;12.74;37.63;150491.97;5060612;28;20120;-66
2023/05/08 05:16:46;;;;;;;2.92;1.67;;;;;;;12.87;37.88;150524.06;5061259;28;20270;-65
2023/05/08 05:19:12;;;;;;;2.97;1.83;;;;;;;12.74;37.87;150490.66;5043747;28;20059;-66
2023/05/08 05:21:38;;;;;;;2.83;2.25;;;;;;;12.55;38.58;150444.41;5067441;28;20249;-66
2023/05/08 05:24:04;;;;;;;2.25;1.88;;;;;;;12.49;37.43;150429.00;5061771;28;20040;-66
2023/05/08 05:26:30;;;;;;;3.72;2.00;;;;;;;12.46;37.31;150421.31;5061227;28;20066;-66
2023/05/08 05:28:56;;;;;;;1.88;1.58;;;;;;;11.91;37.03;150285.19;5054815;28;20029;-67
2023/05/08 05:31:22;;;;;;;2.47;2.00;;;;;;;11.96;36.98;150296.78;5060946;28;20248;-67
2023/05/08 05:33:48;;;;;;;2.15;1.40;;;;;;;11.89;39.02;150278.75;5061493;28;20109;-66
2023/05/08 05:36:13;;;;;;;2.10;1.52;;;;;;;11.84;38.07;150267.22;5060084;28;20195;-68
2023/05/08 05:38:39;;;;;;;3.35;1.73;;;;;;;11.67;37.57;150224.84;5044300;28;20032;-68
2023/05/08 05:41:04;;;;;;;2.95;1.70;;;;;;;11.86;36.83;150272.31;5063388;28;20028;-66
2023/05/08 05:43:31;;;;;;;1.30;1.13;;;;;;;12.11;36.34;150333.97;5053423;28;20025;-66
2023/05/08 05:46:06;;;;;;;1.30;1.20;;;;;;;12.64;35.80;150464.97;5046221;28;20318;-66
2023/05/08 05:48:32;;;;;;;1.50;1.30;;;;;;;12.26;36.38;150371.25;5061097;28;20039;-67
2023/05/08 05:50:57;;;;;;;2.17;1.50;;;;;;;12.42;37.68;150411.03;5061802;28;20020;-67
2023/05/08 05:53:23;;;;;;;1.50;1.40;;;;;;;12.45;36.90;150418.72;5046750;28;20045;-67
2023/05/08 05:55:48;;;;;;;2.03;1.80;;;;;;;12.31;37.68;150384.06;5039070;28;20123;-66
2023/05/08 05:58:15;;;;;;;2.78;1.40;;;;;;;12.34;37.49;150390.47;5060448;28;20092;-66
2023/05/08 06:00:41;;;;;;;2.60;1.55;;;;;;;12.25;35.84;150369.94;5047618;28;20086;-67
2023/05/08 06:03:07;;;;;;;2.10;1.40;;;;;;;12.17;36.90;150349.41;5028172;28;20131;-66
2023/05/08 06:05:33;;;;;;;2.92;1.50;;;;;;;12.21;35.73;150358.38;5062272;28;20032;-66
2023/05/08 06:07:59;;;;;;;2.50;1.30;;;;;;;11.95;36.63;150292.91;5054337;28;20041;-65
2023/05/08 06:10:25;;;;;;;1.48;1.20;;;;;;;12.03;36.94;150313.47;5052761;28;20033;-67
2023/05/08 06:12:50;;;;;;;1.52;1.30;;;;;;;12.12;37.57;150336.56;5065988;28;20052;-66
2023/05/08 06:15:17;;;;;;;3.72;1.13;;;;;;;11.91;36.72;150283.88;5065889;28;20033;-66
2023/05/08 06:17:42;;;;;;;1.05;1.00;;;;;;;11.88;35.70;150277.44;5047664;28;20033;-67
2023/05/08 06:20:08;;;;;;;1.38;1.27;;;;;;;12.03;37.16;150314.75;5037271;28;20025;-68
2023/05/08 06:22:36;;;;;;;3.58;1.65;;;;;;;11.87;37.48;150274.91;5056339;28;20044;-66
2023/05/08 06:25:04;;;;;;;1.38;1.20;;;;;;;11.79;36.80;150254.34;5065622;28;20032;-66
2023/05/08 06:27:29;;;;;;;1.20;1.10;;;;;;;11.70;36.81;150232.53;5047795;28;20020;-66
2023/05/08 06:29:55;;;;;;;3.25;1.30;;;;;;;11.55;35.24;150194.03;5059101;28;20230;-66
2023/05/08 06:32:21;;;;;;;2.22;1.13;;;;;;;11.89;35.52;150280.00;5050491;28;20029;-67
2023/05/08 06:34:47;;;;;;;3.60;0.93;;;;;;;12.00;35.73;150307.03;5055348;28;20029;-66
2023/05/08 06:37:12;;;;;;;2.83;1.10;;;;;;;12.01;35.24;150308.31;5059823;28;20036;-67
2023/05/08 06:39:38;;;;;;;2.25;1.00;;;;;;;12.15;36.02;150344.25;5047719;28;20021;-66
2023/05/08 06:42:05;;;;;;;1.13;1.13;;;;;;;12.29;35.36;150378.94;5059414;28;20353;-68
2023/05/08 06:44:31;;;;;;;1.58;1.40;;;;;;;12.41;35.44;150408.47;5057585;28;20039;-67
2023/05/08 06:46:57;;;;;;;1.67;1.40;;;;;;;12.35;35.09;150393.06;5055486;28;20021;-66
2023/05/08 06:49:23;;;;;;;1.02;0.90;;;;;;;12.15;34.38;150344.25;5065107;28;20092;-67
2023/05/08 06:51:48;;;;;;;0.88;0.82;;;;;;;12.22;33.54;150362.22;5062878;28;20028;-66
2023/05/08 06:54:14;;;;;;;1.95;0.90;;;;;;;12.54;34.24;150440.56;5045086;28;20535;-66
2023/05/08 06:56:40;;;;;;;1.10;1.00;;;;;;;12.51;33.55;150432.88;5061894;28;20036;-66
2023/05/08 06:59:05;;;;;;;0.77;0.77;;;;;;;12.38;33.22;150402.03;5052125;28;20068;-66
2023/05/08 07:01:31;;;;;;;2.58;0.95;;;;;;;11.90;33.38;150282.59;5056123;28;20363;-66
2023/05/08 07:03:57;;;;;;;1.02;0.93;;;;;;;11.69;34.19;150228.69;5064713;28;20037;-66
2023/05/08 07:06:23;;;;;;;2.42;0.93;;;;;;;11.96;34.05;150296.78;5064386;28;20072;-66
2023/05/08 07:08:48;;;;;;;2.20;1.13;;;;;;;12.19;34.99;150354.53;5048918;28;20086;-66
2023/05/08 07:11:14;;;;;;;2.38;1.40;;;;;;;12.26;36.28;150371.25;5064417;28;20025;-66
2023/05/08 07:13:42;;;;;;;2.28;1.20;;;;;;;12.34;34.61;150390.47;5058113;28;20155;-66
2023/05/08 07:16:11;;;;;;;0.90;0.90;;;;;;;12.16;34.60;150345.56;5065719;28;20029;-66
2023/05/08 07:18:37;;;;;;;1.38;1.00;;;;;;;12.32;34.74;150386.63;5056752;28;20297;-66
2023/05/08 07:21:03;;;;;;;1.48;1.23;;;;;;;12.24;34.16;150367.38;5064322;28;20029;-65
2023/05/08 07:23:28;;;;;;;1.92;0.95;;;;;;;12.16;34.68;150346.84;5049249;28;20191;-66
2023/05/08 07:25:54;;;;;;;10.73;1.67;;;;;;;12.34;34.93;150390.47;5055295;28;20028;-66
2023/05/08 07:28:20;;;;;;;1.40;1.30;;;;;;;12.28;34.47;150375.09;5064125;28;20033;-65
2023/05/08 07:30:46;;;;;;;2.35;0.98;;;;;;;12.48;34.08;150426.44;5064184;28;20033;-66
2023/05/08 07:33:12;;;;;;;1.50;0.90;;;;;;;12.50;33.42;150430.28;5064444;28;20032;-67
2023/05/08 07:35:41;;;;;;;1.33;1.00;;;;;;;12.18;33.84;150351.94;5063980;28;20040;-66
2023/05/08 07:38:07;;;;;;;2.55;1.10;;;;;;;12.13;33.47;150339.13;5046229;28;20029;-66
2023/05/08 07:40:32;;;;;;;2.05;1.15;;;;;;;11.97;33.11;150298.03;5064044;28;20071;-66
2023/05/08 07:42:58;;;;;;;1.33;1.23;;;;;;;11.90;34.67;150282.59;5061403;28;20269;-67
2023/05/08 07:45:24;;;;;;;3.25;1.23;;;;;;;11.99;34.45;150303.19;5052108;28;20025;-67
2023/05/08 07:47:51;;;;;;;2.22;1.20;;;;;;;11.39;34.17;150155.53;5046001;28;20213;-66
2023/05/08 07:50:17;;;;;;;2.63;1.38;;;;;;;11.33;35.21;150138.81;5057361;28;20071;-66
2023/05/08 07:52:43;;;;;;;2.15;1.60;;;;;;;11.33;35.59;150138.81;5063622;28;20037;-67
2023/05/08 07:55:09;;;;;;;2.55;1.80;;;;;;;11.68;36.54;150226.13;5046248;28;20028;-66
2023/05/08 07:57:41;;;;;;;2.10;1.00;;;;;;;11.85;35.52;150269.75;5063718;28;20100;-65
2023/05/08 08:00:09;;;;;;;3.60;1.30;;;;;;;12.07;34.12;150323.69;5043880;28;20037;-67
2023/05/08 08:02:34;;;;;;;3.97;1.30;;;;;;;12.37;34.82;150398.19;5062923;28;20090;-68
2023/05/08 08:05:00;;;;;;;2.70;1.40;;;;;;;12.40;34.27;150405.94;5062666;28;20108;-65
2023/05/08 08:07:26;;;;;;;1.95;1.20;;;;;;;12.46;33.59;150420.06;5057665;28;20033;-66
2023/05/08 08:09:51;;;;;;;1.00;1.00;;;;;;;12.42;32.83;150411.03;5028115;28;20059;-65
2023/05/08 08:12:17;;;;;;;2.42;1.20;;;;;;;12.54;33.49;150441.88;5063138;28;20017;-67
2023/05/08 08:14:43;;;;;;;1.20;1.10;;;;;;;12.65;34.78;150467.56;5063726;28;20051;-66
2023/05/08 08:17:08;;;;;;;1.77;1.20;;;;;;;12.75;32.30;150494.53;5062695;28;20052;-66
2023/05/08 08:19:34;;;;;;;3.63;1.20;;;;;;;12.87;32.66;150524.06;5063616;28;20040;-65
2023/05/08 08:22:00;;;;;;;2.75;1.40;;;;;;;12.98;32.86;150549.75;5060623;28;20044;-66
2023/05/08 08:24:27;;;;;;;2.17;1.15;;;;;;;12.64;32.25;150464.97;5043506;28;20032;-66
2023/05/08 08:26:53;;;;;;;1.85;1.20;;;;;;;12.59;34.15;150453.44;5061189;28;20036;-67
2023/05/08 08:29:19;;;;;;;2.70;1.00;;;;;;;12.67;33.87;150474.00;5057946;28;20331;-67
2023/05/08 08:31:44;;;;;;;1.85;1.23;;;;;;;12.48;33.90;150425.16;5054240;28;20036;-66
2023/05/08 08:34:10;;;;;;;1.95;1.42;;;;;;;12.26;31.51;150372.50;5046439;28;20044;-65
2023/05/08 08:36:36;;;;;;;1.45;1.05;;;;;;;12.33;30.68;150387.94;5044941;28;20344;-66
2023/05/08 08:39:01;;;;;;;0.93;0.90;;;;;;;12.03;30.48;150314.75;5044974;28;20198;-67
2023/05/08 08:41:27;;;;;;;0.88;0.88;;;;;;;11.50;30.63;150182.50;5067996;28;20040;-66
2023/05/08 08:43:54;;;;;;;0.90;0.90;;;;;;;11.64;31.83;150215.84;5053308;28;20198;-66
2023/05/08 08:46:23;;;;;;;1.48;1.02;;;;;;;11.81;33.83;150258.19;5053648;28;20048;-66
2023/05/08 08:48:51;;;;;;;2.15;0.90;;;;;;;11.61;33.23;150209.41;5043688;28;20198;-67
2023/05/08 08:51:50;;;;;;;3.08;1.30;;;;;;;11.63;33.09;150214.56;5062357;28;20024;-66
2023/05/08 08:54:20;;;;;;;3.30;1.27;;;;;;;11.43;33.78;150164.53;5057485;28;20033;-66
2023/05/08 08:56:48;;;;;;;10.88;1.70;;;;;;;11.43;35.15;150164.53;5062618;28;20044;-65
2023/05/08 08:59:16;;;;;;;2.45;1.10;;;;;;;11.40;34.88;150156.78;5050267;28;20068;-66
2023/05/08 09:01:46;;;;;;;3.13;1.10;;;;;;;11.49;35.75;150179.91;5046253;28;20017;-66
2023/05/08 09:04:12;;;;;;;1.40;1.08;;;;;;;11.60;33.89;150206.88;5045790;28;20086;-66
2023/05/08 09:06:39;;;;;;;0.95;0.85;;;;;;;11.30;32.91;150132.44;5061147;28;20037;-65
2023/05/08 09:09:06;;;;;;;2.15;1.20;;;;;;;11.31;32.86;150133.72;5062469;28;20032;-65
2023/05/08 09:11:32;;;;;;;2.70;1.10;;;;;;;11.33;34.69;150138.81;5062243;28;20092;-67
2023/05/08 09:13:58;;;;;;;0.93;0.90;;;;;;;11.23;33.48;150114.47;5052493;28;20033;-66
2023/05/08 09:16:24;;;;;;;2.22;1.30;;;;;;;11.38;33.79;150152.94;5051695;28;20349;-67
2023/05/08 09:18:50;;;;;;;2.22;1.02;;;;;;;11.41;32.53;150159.38;5062420;28;20124;-68
2023/05/08 09:21:16;;;;;;;2.47;0.90;;;;;;;11.16;32.11;150097.78;5044642;28;20021;-67
2023/05/08 09:23:59;;;;;;;2.75;1.30;;;;;;;11.10;33.19;150082.41;5038800;28;20359;-67
2023/05/08 09:26:31;;;;;;;2.50;1.15;;;;;;;11.20;32.66;150106.75;5061938;28;20033;-68
2023/05/08 09:29:29;;;;;;;2.05;0.98;;;;;;;11.14;33.10;150092.63;5057768;28;20318;-66
2023/05/08 09:31:55;;;;;;;1.92;1.00;;;;;;;11.29;33.28;150129.88;5061472;28;20057;-68
2023/05/08 09:34:26;;;;;;;1.65;1.23;;;;;;;11.12;32.27;150087.53;5062088;28;20043;-66
2023/05/08 09:36:53;;;;;;;0.98;0.98;;;;;;;11.45;33.67;150169.63;5061580;28;20029;-67
2023/05/08 09:39:23;;;;;;;1.73;1.20;;;;;;;11.56;34.63;150197.88;5065276;28;20029;-66
2023/05/08 09:41:57;;;;;;;1.27;1.20;;;;;;;11.68;33.78;150226.13;5054215;28;20063;-66
2023/05/08 09:44:22;;;;;;;2.03;1.20;;;;;;;11.91;34.56;150283.88;5061926;28;20033;-66
2023/05/08 09:46:49;;;;;;;2.47;1.33;;;;;;;12.30;33.06;150380.19;5053401;28;20040;-68
2023/05/08 09:49:18;;;;;;;1.17;1.00;;;;;;;12.33;32.60;150387.94;5027946;28;20033;-67
2023/05/08 09:51:54;;;;;;;1.30;1.20;;;;;;;12.33;32.18;150389.22;5061330;28;20098;-67
2023/05/08 09:54:20;;;;;;;1.60;1.27;;;;;;;12.26;32.37;150372.50;5061833;28;20179;-66
2023/05/08 09:56:45;;;;;;;1.13;1.10;;;;;;;12.12;31.72;150335.28;5061787;28;20029;-66
2023/05/08 09:59:28;;;;;;;1.73;1.20;;;;;;;12.07;32.62;150323.69;5050527;28;20052;-66
2023/05/08 10:01:54;;;;;;;1.33;1.23;;;;;;;11.88;31.35;150276.16;5055065;28;20016;-67
2023/05/08 10:04:31;;;;;;;3.17;1.30;;;;;;;11.91;32.13;150285.19;5024322;28;20061;-67
2023/05/08 10:06:57;;;;;;;1.88;1.65;;;;;;;11.94;33.91;150290.34;5037052;28;20207;-67
2023/05/08 10:09:23;;;;;;;3.10;2.53;;;;;;;12.08;32.76;150326.28;5041859;28;20057;-67
2023/05/08 10:11:51;;;;;;;3.08;1.23;;;;;;;12.34;32.04;150390.47;5057061;28;20211;-66
2023/05/08 10:14:17;;;;;;;1.80;1.30;;;;;;;12.38;30.74;150402.03;5049630;28;20191;-66
2023/05/08 10:16:47;;;;;;;1.35;1.25;;;;;;;12.09;30.60;150330.13;5053583;28;20048;-68
2023/05/08 10:19:19;;;;;;;1.40;1.08;;;;;;;12.07;33.03;150323.69;5061477;28;20127;-67
2023/05/08 10:21:49;;;;;;;2.83;1.30;;;;;;;12.03;31.93;150313.47;5061938;28;20024;-68
2023/05/08 10:24:20;;;;;;;1.85;1.13;;;;;;;11.85;31.83;150268.47;5041780;28;20108;-67
2023/05/08 10:27:08;;;;;;;2.33;1.30;;;;;;;11.94;32.92;150290.34;5057720;28;20040;-67
2023/05/08 10:29:46;;;;;;;2.35;1.42;;;;;;;11.92;32.97;150287.72;5043385;28;20320;-68
2023/05/08 10:32:18;;;;;;;2.22;1.25;;;;;;;11.48;32.45;150177.31;5060594;28;20032;-67
2023/05/08 10:34:48;;;;;;;1.85;1.42;;;;;;;11.41;32.21;150159.38;5061435;28;20046;-65
2023/05/08 10:37:16;;;;;;;2.80;1.58;;;;;;;11.61;33.10;150208.16;5058240;28;20525;-67
2023/05/08 10:39:43;;;;;;;3.13;1.42;;;;;;;11.58;33.01;150201.72;5037201;28;20032;-67
2023/05/08 10:42:12;;;;;;;1.42;1.20;;;;;;;11.53;33.36;150190.19;5065733;28;20021;-67
2023/05/08 10:44:39;;;;;;;1.50;1.40;;;;;;;11.58;32.34;150201.72;5030776;28;20079;-67
2023/05/08 10:47:18;;;;;;;5.28;1.67;;;;;;;11.60;32.34;150206.88;5064772;28;20120;-67
2023/05/08 10:49:54;;;;;;;3.70;1.50;;;;;;;11.59;33.67;150204.31;5065091;28;20029;-67
2023/05/08 10:52:35;;;;;;;1.95;1.70;;;;;;;11.75;32.85;150244.09;5064800;28;20029;-67
2023/05/08 10:55:16;;;;;;;3.08;1.85;;;;;;;11.69;32.21;150229.97;5065167;28;20025;-66
2023/05/08 10:58:11;;;;;;;4.63;1.50;;;;;;;11.77;33.23;150247.94;5065211;28;20209;-66
2023/05/08 11:00:51;;;;;;;1.58;1.15;;;;;;;11.83;31.52;150263.31;5047679;28;20100;-67
2023/05/08 11:03:24;;;;;;;2.85;1.40;;;;;;;11.78;32.82;150251.78;5045089;28;20034;-67
2023/05/08 11:05:52;;;;;;;1.67;1.27;;;;;;;11.98;32.36;150300.63;5060936;28;20033;-67
2023/05/08 11:08:23;;;;;;;3.17;1.33;;;;;;;12.09;31.56;150328.88;5064795;28;20048;-67
2023/05/08 11:11:01;;;;;;;2.30;1.23;;;;;;;11.99;31.67;150304.47;5064593;28;20033;-66
2023/05/08 11:13:52;;;;;;;1.33;1.20;;;;;;;11.99;33.32;150304.47;5060263;28;20040;-67
2023/05/08 11:16:37;;;;;;;1.75;1.40;;;;;;;11.99;31.29;150304.47;5052775;28;20044;-66
2023/05/08 11:19:16;;;;;;;1.50;1.10;;;;;;;11.91;29.86;150285.19;5064518;28;20048;-66
2023/05/08 11:22:12;;;;;;;1.10;1.00;;;;;;;12.05;30.97;150319.84;5063943;28;20115;-68
2023/05/08 11:24:40;;;;;;;2.58;1.10;;;;;;;11.90;31.14;150282.59;5064620;28;20047;-68
2023/05/08 11:27:06;;;;;;;2.78;1.40;;;;;;;12.09;31.27;150328.88;5064106;28;20024;-67
2023/05/08 11:29:32;;;;;;;1.67;1.30;;;;;;;12.15;31.77;150344.25;5060977;28;20036;-67
2023/05/08 11:31:57;;;;;;;1.63;1.27;;;;;;;12.29;31.47;150377.66;5063882;28;20313;-67
2023/05/08 11:34:41;;;;;;;2.72;1.50;;;;;;;12.36;31.28;150395.66;5029807;28;20323;-67